sensor_id;sensor_type;location;lat;lon;timestamp;P1;durP1;ratioP1;P2;durP2;ratioP2
23362;SDS011;11853;48.080;11.960;2022-10-16T00:01:36;3.10;;;2.80;;
23362;SDS011;11853;48.080;11.960;2022-10-16T00:04:03;3.83;;;3.38;;
23362;SDS011;11853;48.080;11.960;2022-10-16T00:06:29;4.80;;;3.38;;
23362;SDS011;11853;48.080;11.960;2022-10-16T00:08:56;5.00;;;3.38;;
23362;SDS011;11853;48.080;11.960;2022-10-16T00:11:23;3.22;;;3.00;;
23362;SDS011;11853;48.080;11.960;2022-10-16T00:13:51;4.22;;;3.85;;
23362;SDS011;11853;48.080;11.960;2022-10-16T00:16:20;3.30;;;3.00;;
23362;SDS011;11853;48.080;11.960;2022-10-16T00:18:45;3.42;;;3.15;;
23362;SDS011;11853;48.080;11.960;2022-10-16T00:21:12;3.63;;;3.20;;
23362;SDS011;11853;48.080;11.960;2022-10-16T00:23:40;4.57;;;3.35;;
23362;SDS011;11853;48.080;11.960;2022-10-16T00:26:07;3.70;;;3.40;;
23362;SDS011;11853;48.080;11.960;2022-10-16T00:28:35;13.68;;;3.90;;
23362;SDS011;11853;48.080;11.960;2022-10-16T00:31:07;3.38;;;3.10;;
23362;SDS011;11853;48.080;11.960;2022-10-16T00:33:36;3.97;;;3.60;;
23362;SDS011;11853;48.080;11.960;2022-10-16T00:36:03;4.25;;;3.50;;
23362;SDS011;11853;48.080;11.960;2022-10-16T00:38:30;3.58;;;3.28;;
23362;SDS011;11853;48.080;11.960;2022-10-16T00:40:56;5.57;;;3.45;;
23362;SDS011;11853;48.080;11.960;2022-10-16T00:46:15;3.40;;;3.08;;
23362;SDS011;11853;48.080;11.960;2022-10-16T00:48:48;3.72;;;3.35;;
23362;SDS011;11853;48.080;11.960;2022-10-16T00:51:15;5.35;;;2.95;;
23362;SDS011;11853;48.080;11.960;2022-10-16T00:53:43;5.85;;;3.83;;
23362;SDS011;11853;48.080;11.960;2022-10-16T00:56:09;3.90;;;3.50;;
23362;SDS011;11853;48.080;11.960;2022-10-16T00:58:36;3.67;;;3.05;;
23362;SDS011;11853;48.080;11.960;2022-10-16T01:01:01;3.53;;;3.08;;
23362;SDS011;11853;48.080;11.960;2022-10-16T01:03:29;3.42;;;3.13;;
23362;SDS011;11853;48.080;11.960;2022-10-16T01:06:06;5.03;;;3.75;;
23362;SDS011;11853;48.080;11.960;2022-10-16T01:11:26;6.20;;;4.00;;
23362;SDS011;11853;48.080;11.960;2022-10-16T01:14:00;4.47;;;3.95;;
23362;SDS011;11853;48.080;11.960;2022-10-16T01:19:44;5.88;;;3.67;;
23362;SDS011;11853;48.080;11.960;2022-10-16T01:22:13;3.83;;;3.53;;
23362;SDS011;11853;48.080;11.960;2022-10-16T01:24:40;4.57;;;3.25;;
23362;SDS011;11853;48.080;11.960;2022-10-16T01:29:48;4.03;;;3.63;;
23362;SDS011;11853;48.080;11.960;2022-10-16T01:32:38;5.68;;;3.33;;
23362;SDS011;11853;48.080;11.960;2022-10-16T01:35:09;5.40;;;3.50;;
23362;SDS011;11853;48.080;11.960;2022-10-16T01:37:50;3.67;;;3.35;;
23362;SDS011;11853;48.080;11.960;2022-10-16T01:40:28;4.43;;;3.03;;
23362;SDS011;11853;48.080;11.960;2022-10-16T01:43:16;5.85;;;3.33;;
23362;SDS011;11853;48.080;11.960;2022-10-16T01:45:46;4.25;;;3.50;;
23362;SDS011;11853;48.080;11.960;2022-10-16T01:48:13;3.38;;;3.08;;
23362;SDS011;11853;48.080;11.960;2022-10-16T01:50:43;7.68;;;3.42;;
23362;SDS011;11853;48.080;11.960;2022-10-16T01:53:48;4.13;;;3.00;;
23362;SDS011;11853;48.080;11.960;2022-10-16T01:56:18;5.47;;;3.20;;
23362;SDS011;11853;48.080;11.960;2022-10-16T01:59:33;3.95;;;2.75;;
23362;SDS011;11853;48.080;11.960;2022-10-16T02:01:41;4.13;;;2.90;;
23362;SDS011;11853;48.080;11.960;2022-10-16T02:04:17;3.53;;;3.22;;
23362;SDS011;11853;48.080;11.960;2022-10-16T02:06:46;3.63;;;2.97;;
23362;SDS011;11853;48.080;11.960;2022-10-16T02:09:12;5.35;;;3.53;;
23362;SDS011;11853;48.080;11.960;2022-10-16T02:11:40;3.00;;;2.80;;
23362;SDS011;11853;48.080;11.960;2022-10-16T02:14:06;3.40;;;2.95;;
23362;SDS011;11853;48.080;11.960;2022-10-16T02:16:42;3.85;;;3.30;;
23362;SDS011;11853;48.080;11.960;2022-10-16T02:19:09;3.20;;;2.90;;
23362;SDS011;11853;48.080;11.960;2022-10-16T02:21:40;3.13;;;2.60;;
23362;SDS011;11853;48.080;11.960;2022-10-16T02:24:22;5.70;;;3.35;;
23362;SDS011;11853;48.080;11.960;2022-10-16T02:29:42;3.03;;;2.78;;
23362;SDS011;11853;48.080;11.960;2022-10-16T02:32:13;3.17;;;2.85;;
23362;SDS011;11853;48.080;11.960;2022-10-16T02:34:42;3.95;;;2.70;;
23362;SDS011;11853;48.080;11.960;2022-10-16T02:37:10;4.57;;;3.10;;
23362;SDS011;11853;48.080;11.960;2022-10-16T02:39:36;3.85;;;3.38;;
23362;SDS011;11853;48.080;11.960;2022-10-16T02:42:03;3.63;;;3.28;;
23362;SDS011;11853;48.080;11.960;2022-10-16T02:44:29;3.70;;;3.10;;
23362;SDS011;11853;48.080;11.960;2022-10-16T02:46:55;3.95;;;3.30;;
23362;SDS011;11853;48.080;11.960;2022-10-16T02:49:20;3.70;;;3.40;;
23362;SDS011;11853;48.080;11.960;2022-10-16T02:51:46;3.88;;;3.17;;
23362;SDS011;11853;48.080;11.960;2022-10-16T02:54:11;3.03;;;2.83;;
23362;SDS011;11853;48.080;11.960;2022-10-16T02:56:38;3.97;;;3.50;;
23362;SDS011;11853;48.080;11.960;2022-10-16T02:59:03;3.05;;;2.85;;
23362;SDS011;11853;48.080;11.960;2022-10-16T03:01:29;3.90;;;3.17;;
23362;SDS011;11853;48.080;11.960;2022-10-16T03:03:54;6.47;;;3.40;;
23362;SDS011;11853;48.080;11.960;2022-10-16T03:06:20;3.47;;;2.80;;
23362;SDS011;11853;48.080;11.960;2022-10-16T03:08:45;3.80;;;3.50;;
23362;SDS011;11853;48.080;11.960;2022-10-16T03:11:11;3.33;;;3.03;;
23362;SDS011;11853;48.080;11.960;2022-10-16T03:13:36;4.75;;;3.45;;
23362;SDS011;11853;48.080;11.960;2022-10-16T03:16:02;5.05;;;3.40;;
23362;SDS011;11853;48.080;11.960;2022-10-16T03:18:28;4.35;;;3.05;;
23362;SDS011;11853;48.080;11.960;2022-10-16T03:20:53;5.68;;;2.90;;
23362;SDS011;11853;48.080;11.960;2022-10-16T03:23:19;4.18;;;3.05;;
23362;SDS011;11853;48.080;11.960;2022-10-16T03:25:44;3.35;;;3.03;;
23362;SDS011;11853;48.080;11.960;2022-10-16T03:28:10;3.10;;;2.90;;
23362;SDS011;11853;48.080;11.960;2022-10-16T03:30:35;6.25;;;3.38;;
23362;SDS011;11853;48.080;11.960;2022-10-16T03:33:01;3.83;;;3.30;;
23362;SDS011;11853;48.080;11.960;2022-10-16T03:35:26;6.78;;;3.28;;
23362;SDS011;11853;48.080;11.960;2022-10-16T03:37:52;3.75;;;3.38;;
23362;SDS011;11853;48.080;11.960;2022-10-16T03:40:17;5.13;;;3.45;;
23362;SDS011;11853;48.080;11.960;2022-10-16T03:42:43;4.50;;;3.05;;
23362;SDS011;11853;48.080;11.960;2022-10-16T03:45:09;4.35;;;3.00;;
23362;SDS011;11853;48.080;11.960;2022-10-16T03:47:35;3.45;;;2.88;;
23362;SDS011;11853;48.080;11.960;2022-10-16T03:50:01;4.90;;;2.80;;
23362;SDS011;11853;48.080;11.960;2022-10-16T03:52:28;5.45;;;3.30;;
23362;SDS011;11853;48.080;11.960;2022-10-16T03:54:53;5.47;;;4.80;;
23362;SDS011;11853;48.080;11.960;2022-10-16T03:57:19;4.30;;;3.90;;
23362;SDS011;11853;48.080;11.960;2022-10-16T03:59:45;4.28;;;3.70;;
23362;SDS011;11853;48.080;11.960;2022-10-16T04:02:11;5.60;;;3.15;;
23362;SDS011;11853;48.080;11.960;2022-10-16T04:04:36;3.72;;;2.90;;
23362;SDS011;11853;48.080;11.960;2022-10-16T04:07:02;3.17;;;2.67;;
23362;SDS011;11853;48.080;11.960;2022-10-16T04:09:27;3.17;;;2.40;;
23362;SDS011;11853;48.080;11.960;2022-10-16T04:11:53;2.45;;;2.25;;
23362;SDS011;11853;48.080;11.960;2022-10-16T04:14:18;2.83;;;2.63;;
23362;SDS011;11853;48.080;11.960;2022-10-16T04:16:44;3.63;;;2.80;;
23362;SDS011;11853;48.080;11.960;2022-10-16T04:19:10;3.38;;;2.70;;
23362;SDS011;11853;48.080;11.960;2022-10-16T04:21:36;4.22;;;2.72;;
23362;SDS011;11853;48.080;11.960;2022-10-16T04:24:02;3.53;;;2.70;;
23362;SDS011;11853;48.080;11.960;2022-10-16T04:26:28;4.05;;;2.70;;
23362;SDS011;11853;48.080;11.960;2022-10-16T04:28:54;3.20;;;2.42;;
23362;SDS011;11853;48.080;11.960;2022-10-16T04:31:20;3.40;;;3.05;;
23362;SDS011;11853;48.080;11.960;2022-10-16T04:33:46;3.10;;;2.90;;
23362;SDS011;11853;48.080;11.960;2022-10-16T04:36:11;6.63;;;2.90;;
23362;SDS011;11853;48.080;11.960;2022-10-16T04:38:37;2.92;;;2.72;;
23362;SDS011;11853;48.080;11.960;2022-10-16T04:41:04;6.28;;;2.92;;
23362;SDS011;11853;48.080;11.960;2022-10-16T04:43:30;4.43;;;2.90;;
23362;SDS011;11853;48.080;11.960;2022-10-16T04:45:56;4.63;;;2.85;;
23362;SDS011;11853;48.080;11.960;2022-10-16T04:48:22;3.95;;;2.90;;
23362;SDS011;11853;48.080;11.960;2022-10-16T04:50:47;3.13;;;2.83;;
23362;SDS011;11853;48.080;11.960;2022-10-16T04:53:13;4.45;;;3.08;;
23362;SDS011;11853;48.080;11.960;2022-10-16T04:55:39;3.53;;;3.05;;
23362;SDS011;11853;48.080;11.960;2022-10-16T04:58:06;5.03;;;2.85;;
23362;SDS011;11853;48.080;11.960;2022-10-16T05:00:32;3.42;;;3.13;;
23362;SDS011;11853;48.080;11.960;2022-10-16T05:02:58;5.03;;;2.78;;
23362;SDS011;11853;48.080;11.960;2022-10-16T05:05:25;3.47;;;3.17;;
23362;SDS011;11853;48.080;11.960;2022-10-16T05:07:51;4.03;;;3.20;;
23362;SDS011;11853;48.080;11.960;2022-10-16T05:10:17;3.83;;;3.22;;
23362;SDS011;11853;48.080;11.960;2022-10-16T05:12:43;4.07;;;3.38;;
23362;SDS011;11853;48.080;11.960;2022-10-16T05:15:09;8.48;;;3.67;;
23362;SDS011;11853;48.080;11.960;2022-10-16T05:17:34;3.55;;;3.15;;
23362;SDS011;11853;48.080;11.960;2022-10-16T05:20:00;6.07;;;3.75;;
23362;SDS011;11853;48.080;11.960;2022-10-16T05:22:25;3.70;;;3.30;;
23362;SDS011;11853;48.080;11.960;2022-10-16T05:24:51;5.45;;;3.70;;
23362;SDS011;11853;48.080;11.960;2022-10-16T05:27:16;4.25;;;3.88;;
23362;SDS011;11853;48.080;11.960;2022-10-16T05:29:45;3.92;;;3.58;;
23362;SDS011;11853;48.080;11.960;2022-10-16T05:32:12;4.38;;;3.40;;
23362;SDS011;11853;48.080;11.960;2022-10-16T05:34:39;4.00;;;3.55;;
23362;SDS011;11853;48.080;11.960;2022-10-16T05:37:04;4.32;;;3.78;;
23362;SDS011;11853;48.080;11.960;2022-10-16T05:39:30;3.47;;;3.17;;
23362;SDS011;11853;48.080;11.960;2022-10-16T05:41:56;4.10;;;3.80;;
23362;SDS011;11853;48.080;11.960;2022-10-16T05:44:21;4.43;;;4.03;;
23362;SDS011;11853;48.080;11.960;2022-10-16T05:46:47;5.80;;;3.60;;
23362;SDS011;11853;48.080;11.960;2022-10-16T05:49:12;6.38;;;3.30;;
23362;SDS011;11853;48.080;11.960;2022-10-16T05:51:38;5.60;;;3.50;;
23362;SDS011;11853;48.080;11.960;2022-10-16T05:54:03;3.50;;;3.20;;
23362;SDS011;11853;48.080;11.960;2022-10-16T05:56:29;3.92;;;3.35;;
23362;SDS011;11853;48.080;11.960;2022-10-16T05:58:54;4.40;;;3.30;;
23362;SDS011;11853;48.080;11.960;2022-10-16T06:01:20;4.50;;;3.50;;
23362;SDS011;11853;48.080;11.960;2022-10-16T06:03:49;3.70;;;3.40;;
23362;SDS011;11853;48.080;11.960;2022-10-16T06:06:19;5.75;;;3.53;;
23362;SDS011;11853;48.080;11.960;2022-10-16T06:08:48;4.65;;;3.65;;
23362;SDS011;11853;48.080;11.960;2022-10-16T06:11:18;3.60;;;3.30;;
23362;SDS011;11853;48.080;11.960;2022-10-16T06:13:50;3.67;;;3.25;;
23362;SDS011;11853;48.080;11.960;2022-10-16T06:16:17;3.72;;;3.10;;
23362;SDS011;11853;48.080;11.960;2022-10-16T06:18:42;4.10;;;3.65;;
23362;SDS011;11853;48.080;11.960;2022-10-16T06:21:09;5.75;;;3.97;;
23362;SDS011;11853;48.080;11.960;2022-10-16T06:23:36;4.45;;;3.70;;
23362;SDS011;11853;48.080;11.960;2022-10-16T06:26:09;4.00;;;3.60;;
23362;SDS011;11853;48.080;11.960;2022-10-16T06:28:36;3.65;;;3.28;;
23362;SDS011;11853;48.080;11.960;2022-10-16T06:31:03;5.68;;;3.83;;
23362;SDS011;11853;48.080;11.960;2022-10-16T06:33:30;4.10;;;3.35;;
23362;SDS011;11853;48.080;11.960;2022-10-16T06:36:05;4.07;;;3.53;;
23362;SDS011;11853;48.080;11.960;2022-10-16T06:38:32;4.20;;;3.80;;
23362;SDS011;11853;48.080;11.960;2022-10-16T06:40:57;3.72;;;3.38;;
23362;SDS011;11853;48.080;11.960;2022-10-16T06:43:24;3.67;;;3.38;;
23362;SDS011;11853;48.080;11.960;2022-10-16T06:45:53;3.97;;;3.22;;
23362;SDS011;11853;48.080;11.960;2022-10-16T06:48:22;6.55;;;3.78;;
23362;SDS011;11853;48.080;11.960;2022-10-16T06:51:05;4.95;;;3.67;;
23362;SDS011;11853;48.080;11.960;2022-10-16T06:53:34;3.50;;;3.25;;
23362;SDS011;11853;48.080;11.960;2022-10-16T06:56:34;4.18;;;3.60;;
23362;SDS011;11853;48.080;11.960;2022-10-16T06:58:55;3.60;;;3.30;;
23362;SDS011;11853;48.080;11.960;2022-10-16T07:01:22;4.47;;;3.80;;
23362;SDS011;11853;48.080;11.960;2022-10-16T07:03:49;6.05;;;3.70;;
23362;SDS011;11853;48.080;11.960;2022-10-16T07:06:15;3.80;;;3.08;;
23362;SDS011;11853;48.080;11.960;2022-10-16T07:08:44;3.65;;;3.35;;
23362;SDS011;11853;48.080;11.960;2022-10-16T07:11:11;3.75;;;3.45;;
23362;SDS011;11853;48.080;11.960;2022-10-16T07:13:39;3.55;;;3.10;;
23362;SDS011;11853;48.080;11.960;2022-10-16T07:16:11;4.00;;;3.60;;
23362;SDS011;11853;48.080;11.960;2022-10-16T07:18:41;6.25;;;4.10;;
23362;SDS011;11853;48.080;11.960;2022-10-16T07:21:13;4.70;;;3.97;;
23362;SDS011;11853;48.080;11.960;2022-10-16T07:23:43;3.75;;;3.40;;
23362;SDS011;11853;48.080;11.960;2022-10-16T07:26:08;3.83;;;3.33;;
23362;SDS011;11853;48.080;11.960;2022-10-16T07:28:35;3.80;;;3.35;;
23362;SDS011;11853;48.080;11.960;2022-10-16T07:31:04;4.97;;;4.32;;
23362;SDS011;11853;48.080;11.960;2022-10-16T07:33:32;6.03;;;5.43;;
23362;SDS011;11853;48.080;11.960;2022-10-16T07:35:58;4.05;;;3.70;;
23362;SDS011;11853;48.080;11.960;2022-10-16T07:38:24;4.65;;;3.47;;
23362;SDS011;11853;48.080;11.960;2022-10-16T07:40:57;5.30;;;3.58;;
23362;SDS011;11853;48.080;11.960;2022-10-16T07:43:27;3.72;;;3.13;;
23362;SDS011;11853;48.080;11.960;2022-10-16T07:45:53;3.45;;;3.15;;
23362;SDS011;11853;48.080;11.960;2022-10-16T07:48:20;3.42;;;3.13;;
23362;SDS011;11853;48.080;11.960;2022-10-16T07:50:47;4.30;;;3.25;;
23362;SDS011;11853;48.080;11.960;2022-10-16T07:53:12;3.97;;;2.95;;
23362;SDS011;11853;48.080;11.960;2022-10-16T07:55:39;5.32;;;2.95;;
23362;SDS011;11853;48.080;11.960;2022-10-16T07:58:04;5.85;;;3.20;;
23362;SDS011;11853;48.080;11.960;2022-10-16T08:00:30;3.40;;;3.10;;
23362;SDS011;11853;48.080;11.960;2022-10-16T08:02:57;5.63;;;3.00;;
23362;SDS011;11853;48.080;11.960;2022-10-16T08:05:30;2.83;;;2.63;;
23362;SDS011;11853;48.080;11.960;2022-10-16T08:07:57;6.97;;;3.22;;
23362;SDS011;11853;48.080;11.960;2022-10-16T08:10:23;6.75;;;3.22;;
23362;SDS011;11853;48.080;11.960;2022-10-16T08:12:50;3.13;;;2.90;;
23362;SDS011;11853;48.080;11.960;2022-10-16T08:15:17;3.45;;;3.15;;
23362;SDS011;11853;48.080;11.960;2022-10-16T08:17:42;3.40;;;3.08;;
23362;SDS011;11853;48.080;11.960;2022-10-16T08:20:08;3.83;;;3.28;;
23362;SDS011;11853;48.080;11.960;2022-10-16T08:22:34;4.85;;;3.72;;
23362;SDS011;11853;48.080;11.960;2022-10-16T08:25:00;4.00;;;3.70;;
23362;SDS011;11853;48.080;11.960;2022-10-16T08:27:30;4.82;;;4.30;;
23362;SDS011;11853;48.080;11.960;2022-10-16T08:29:56;6.93;;;4.23;;
23362;SDS011;11853;48.080;11.960;2022-10-16T08:32:22;6.55;;;5.00;;
23362;SDS011;11853;48.080;11.960;2022-10-16T08:34:47;4.43;;;4.03;;
23362;SDS011;11853;48.080;11.960;2022-10-16T08:37:13;5.85;;;4.35;;
23362;SDS011;11853;48.080;11.960;2022-10-16T08:39:39;5.45;;;4.00;;
23362;SDS011;11853;48.080;11.960;2022-10-16T08:42:15;4.72;;;3.45;;
23362;SDS011;11853;48.080;11.960;2022-10-16T08:47:48;2.92;;;2.40;;
23362;SDS011;11853;48.080;11.960;2022-10-16T08:50:21;2.75;;;2.55;;
23362;SDS011;11853;48.080;11.960;2022-10-16T08:52:50;2.80;;;2.60;;
23362;SDS011;11853;48.080;11.960;2022-10-16T08:55:28;4.88;;;2.80;;
23362;SDS011;11853;48.080;11.960;2022-10-16T08:57:59;2.88;;;2.40;;
23362;SDS011;11853;48.080;11.960;2022-10-16T09:00:25;2.17;;;2.08;;
23362;SDS011;11853;48.080;11.960;2022-10-16T09:05:52;2.50;;;2.30;;
23362;SDS011;11853;48.080;11.960;2022-10-16T09:08:54;2.88;;;2.03;;
23362;SDS011;11853;48.080;11.960;2022-10-16T09:23:14;2.63;;;1.95;;
23362;SDS011;11853;48.080;11.960;2022-10-16T09:25:47;3.55;;;2.28;;
23362;SDS011;11853;48.080;11.960;2022-10-16T09:28:15;2.65;;;2.03;;
23362;SDS011;11853;48.080;11.960;2022-10-16T09:30:42;2.80;;;2.40;;
23362;SDS011;11853;48.080;11.960;2022-10-16T09:33:09;6.07;;;5.43;;
23362;SDS011;11853;48.080;11.960;2022-10-16T09:35:37;2.17;;;2.08;;
23362;SDS011;11853;48.080;11.960;2022-10-16T09:38:05;2.40;;;2.20;;
23362;SDS011;11853;48.080;11.960;2022-10-16T09:40:35;2.45;;;2.25;;
23362;SDS011;11853;48.080;11.960;2022-10-16T09:43:22;2.80;;;2.17;;
23362;SDS011;11853;48.080;11.960;2022-10-16T09:46:03;3.00;;;1.92;;
23362;SDS011;11853;48.080;11.960;2022-10-16T09:48:39;3.38;;;2.20;;
23362;SDS011;11853;48.080;11.960;2022-10-16T09:56:35;2.97;;;2.22;;
23362;SDS011;11853;48.080;11.960;2022-10-16T09:59:22;2.50;;;1.98;;
23362;SDS011;11853;48.080;11.960;2022-10-16T10:01:53;4.17;;;1.87;;
23362;SDS011;11853;48.080;11.960;2022-10-16T10:04:20;3.15;;;2.25;;
23362;SDS011;11853;48.080;11.960;2022-10-16T10:06:50;2.78;;;2.20;;
23362;SDS011;11853;48.080;11.960;2022-10-16T10:09:26;2.97;;;2.13;;
23362;SDS011;11853;48.080;11.960;2022-10-16T10:11:59;2.63;;;2.20;;
23362;SDS011;11853;48.080;11.960;2022-10-16T10:17:09;3.22;;;2.33;;
23362;SDS011;11853;48.080;11.960;2022-10-16T10:22:19;5.20;;;2.10;;
23362;SDS011;11853;48.080;11.960;2022-10-16T10:30:23;3.05;;;2.75;;
23362;SDS011;11853;48.080;11.960;2022-10-16T10:47:27;3.65;;;2.17;;
23362;SDS011;11853;48.080;11.960;2022-10-16T10:52:35;2.50;;;2.30;;
23362;SDS011;11853;48.080;11.960;2022-10-16T11:05:47;2.30;;;2.10;;
23362;SDS011;11853;48.080;11.960;2022-10-16T11:08:39;3.47;;;1.90;;
23362;SDS011;11853;48.080;11.960;2022-10-16T11:11:16;4.10;;;2.20;;
23362;SDS011;11853;48.080;11.960;2022-10-16T11:16:42;2.60;;;2.40;;
23362;SDS011;11853;48.080;11.960;2022-10-16T11:22:04;4.47;;;1.80;;
23362;SDS011;11853;48.080;11.960;2022-10-16T11:30:16;4.25;;;1.90;;
23362;SDS011;11853;48.080;11.960;2022-10-16T11:36:16;2.10;;;1.90;;
23362;SDS011;11853;48.080;11.960;2022-10-16T11:49:59;2.20;;;2.00;;
23362;SDS011;11853;48.080;11.960;2022-10-16T11:52:36;2.65;;;1.98;;
23362;SDS011;11853;48.080;11.960;2022-10-16T11:58:05;2.78;;;1.85;;
23362;SDS011;11853;48.080;11.960;2022-10-16T12:03:23;2.20;;;2.10;;
23362;SDS011;11853;48.080;11.960;2022-10-16T12:08:24;2.30;;;1.92;;
23362;SDS011;11853;48.080;11.960;2022-10-16T12:10:51;1.80;;;1.70;;
23362;SDS011;11853;48.080;11.960;2022-10-16T12:18:43;2.22;;;1.95;;
23362;SDS011;11853;48.080;11.960;2022-10-16T12:21:10;2.10;;;1.92;;
23362;SDS011;11853;48.080;11.960;2022-10-16T12:23:53;2.38;;;2.17;;
23362;SDS011;11853;48.080;11.960;2022-10-16T12:26:36;2.88;;;2.00;;
23362;SDS011;11853;48.080;11.960;2022-10-16T12:31:55;1.75;;;1.65;;
23362;SDS011;11853;48.080;11.960;2022-10-16T12:37:14;2.00;;;1.90;;
23362;SDS011;11853;48.080;11.960;2022-10-16T12:39:46;2.10;;;1.90;;
23362;SDS011;11853;48.080;11.960;2022-10-16T12:42:20;1.92;;;1.70;;
23362;SDS011;11853;48.080;11.960;2022-10-16T12:44:58;1.70;;;1.60;;
23362;SDS011;11853;48.080;11.960;2022-10-16T12:49:56;2.65;;;1.88;;
23362;SDS011;11853;48.080;11.960;2022-10-16T12:52:46;2.10;;;1.45;;
23362;SDS011;11853;48.080;11.960;2022-10-16T12:55:17;2.40;;;1.40;;
23362;SDS011;11853;48.080;11.960;2022-10-16T13:06:46;2.75;;;1.30;;
23362;SDS011;11853;48.080;11.960;2022-10-16T13:15:21;1.50;;;1.35;;
23362;SDS011;11853;48.080;11.960;2022-10-16T13:20:24;1.40;;;1.30;;
23362;SDS011;11853;48.080;11.960;2022-10-16T13:28:16;1.27;;;1.20;;
23362;SDS011;11853;48.080;11.960;2022-10-16T13:30:53;1.05;;;1.05;;
23362;SDS011;11853;48.080;11.960;2022-10-16T13:35:55;1.35;;;1.25;;
23362;SDS011;11853;48.080;11.960;2022-10-16T13:38:22;0.85;;;0.82;;
23362;SDS011;11853;48.080;11.960;2022-10-16T13:41:11;1.35;;;1.25;;
23362;SDS011;11853;48.080;11.960;2022-10-16T13:46:17;1.00;;;0.98;;
23362;SDS011;11853;48.080;11.960;2022-10-16T13:48:44;0.98;;;0.95;;
23362;SDS011;11853;48.080;11.960;2022-10-16T13:51:21;1.40;;;1.30;;
23362;SDS011;11853;48.080;11.960;2022-10-16T13:53:46;2.15;;;1.67;;
23362;SDS011;11853;48.080;11.960;2022-10-16T13:56:14;3.67;;;2.10;;
23362;SDS011;11853;48.080;11.960;2022-10-16T13:58:41;1.80;;;1.70;;
23362;SDS011;11853;48.080;11.960;2022-10-16T14:03:47;2.88;;;1.65;;
23362;SDS011;11853;48.080;11.960;2022-10-16T14:06:15;2.25;;;1.60;;
23362;SDS011;11853;48.080;11.960;2022-10-16T14:08:50;3.63;;;1.90;;
23362;SDS011;11853;48.080;11.960;2022-10-16T14:11:50;2.53;;;2.00;;
23362;SDS011;11853;48.080;11.960;2022-10-16T14:14:19;2.53;;;2.00;;
23362;SDS011;11853;48.080;11.960;2022-10-16T14:16:45;2.28;;;2.00;;
23362;SDS011;11853;48.080;11.960;2022-10-16T14:19:29;2.40;;;2.15;;
23362;SDS011;11853;48.080;11.960;2022-10-16T14:21:56;2.05;;;1.95;;
23362;SDS011;11853;48.080;11.960;2022-10-16T14:26:56;1.98;;;1.88;;
23362;SDS011;11853;48.080;11.960;2022-10-16T14:29:22;2.75;;;2.10;;
23362;SDS011;11853;48.080;11.960;2022-10-16T14:31:57;3.33;;;1.95;;
23362;SDS011;11853;48.080;11.960;2022-10-16T14:34:24;2.10;;;2.00;;
23362;SDS011;11853;48.080;11.960;2022-10-16T14:36:55;3.15;;;1.90;;
23362;SDS011;11853;48.080;11.960;2022-10-16T14:39:22;3.05;;;1.90;;
23362;SDS011;11853;48.080;11.960;2022-10-16T14:41:54;1.80;;;1.70;;
23362;SDS011;11853;48.080;11.960;2022-10-16T14:44:27;1.92;;;1.80;;
23362;SDS011;11853;48.080;11.960;2022-10-16T14:46:56;1.77;;;1.50;;
23362;SDS011;11853;48.080;11.960;2022-10-16T14:49:22;2.10;;;1.88;;
23362;SDS011;11853;48.080;11.960;2022-10-16T14:51:49;1.98;;;1.88;;
23362;SDS011;11853;48.080;11.960;2022-10-16T14:54:15;2.50;;;1.90;;
23362;SDS011;11853;48.080;11.960;2022-10-16T14:56:53;1.88;;;1.77;;
23362;SDS011;11853;48.080;11.960;2022-10-16T14:59:25;2.80;;;1.90;;
23362;SDS011;11853;48.080;11.960;2022-10-16T15:01:55;5.28;;;1.88;;
23362;SDS011;11853;48.080;11.960;2022-10-16T15:04:21;2.67;;;1.90;;
23362;SDS011;11853;48.080;11.960;2022-10-16T15:06:47;2.80;;;2.58;;
23362;SDS011;11853;48.080;11.960;2022-10-16T15:09:13;2.80;;;2.20;;
23362;SDS011;11853;48.080;11.960;2022-10-16T15:11:38;2.13;;;1.92;;
23362;SDS011;11853;48.080;11.960;2022-10-16T15:14:04;2.38;;;1.92;;
23362;SDS011;11853;48.080;11.960;2022-10-16T15:16:30;2.00;;;1.70;;
23362;SDS011;11853;48.080;11.960;2022-10-16T15:18:56;2.30;;;2.00;;
23362;SDS011;11853;48.080;11.960;2022-10-16T15:21:24;1.92;;;1.73;;
23362;SDS011;11853;48.080;11.960;2022-10-16T15:23:52;3.38;;;3.05;;
23362;SDS011;11853;48.080;11.960;2022-10-16T15:26:18;4.72;;;3.40;;
23362;SDS011;11853;48.080;11.960;2022-10-16T15:28:43;4.40;;;3.83;;
23362;SDS011;11853;48.080;11.960;2022-10-16T15:31:09;43.00;;;31.23;;
23362;SDS011;11853;48.080;11.960;2022-10-16T15:33:35;16.83;;;13.55;;
23362;SDS011;11853;48.080;11.960;2022-10-16T15:36:01;11.45;;;8.50;;
23362;SDS011;11853;48.080;11.960;2022-10-16T15:38:27;27.23;;;16.60;;
23362;SDS011;11853;48.080;11.960;2022-10-16T15:40:54;15.70;;;10.30;;
23362;SDS011;11853;48.080;11.960;2022-10-16T15:43:20;39.05;;;21.58;;
23362;SDS011;11853;48.080;11.960;2022-10-16T15:45:58;59.95;;;31.27;;
23362;SDS011;11853;48.080;11.960;2022-10-16T15:48:25;67.85;;;38.60;;
23362;SDS011;11853;48.080;11.960;2022-10-16T15:50:50;72.10;;;41.92;;
23362;SDS011;11853;48.080;11.960;2022-10-16T15:53:16;44.92;;;26.80;;
23362;SDS011;11853;48.080;11.960;2022-10-16T15:55:41;6.53;;;4.88;;
23362;SDS011;11853;48.080;11.960;2022-10-16T15:58:07;4.60;;;3.58;;
23362;SDS011;11853;48.080;11.960;2022-10-16T16:00:32;5.97;;;3.90;;
23362;SDS011;11853;48.080;11.960;2022-10-16T16:02:58;5.13;;;3.47;;
23362;SDS011;11853;48.080;11.960;2022-10-16T16:05:23;9.32;;;5.65;;
23362;SDS011;11853;48.080;11.960;2022-10-16T16:07:49;13.23;;;8.95;;
23362;SDS011;11853;48.080;11.960;2022-10-16T16:10:15;19.20;;;9.52;;
23362;SDS011;11853;48.080;11.960;2022-10-16T16:12:41;12.45;;;8.85;;
23362;SDS011;11853;48.080;11.960;2022-10-16T16:15:08;10.73;;;7.47;;
23362;SDS011;11853;48.080;11.960;2022-10-16T16:17:35;9.13;;;5.78;;
23362;SDS011;11853;48.080;11.960;2022-10-16T16:20:01;6.68;;;4.93;;
23362;SDS011;11853;48.080;11.960;2022-10-16T16:22:29;5.63;;;3.85;;
23362;SDS011;11853;48.080;11.960;2022-10-16T16:24:54;3.33;;;3.08;;
23362;SDS011;11853;48.080;11.960;2022-10-16T16:27:20;3.88;;;3.05;;
23362;SDS011;11853;48.080;11.960;2022-10-16T16:29:46;2.65;;;2.45;;
23362;SDS011;11853;48.080;11.960;2022-10-16T16:32:12;2.63;;;2.42;;
23362;SDS011;11853;48.080;11.960;2022-10-16T16:34:38;4.80;;;2.67;;
23362;SDS011;11853;48.080;11.960;2022-10-16T16:37:03;3.25;;;2.95;;
23362;SDS011;11853;48.080;11.960;2022-10-16T16:39:29;2.80;;;2.60;;
23362;SDS011;11853;48.080;11.960;2022-10-16T16:41:55;2.38;;;2.17;;
23362;SDS011;11853;48.080;11.960;2022-10-16T16:44:23;3.10;;;2.17;;
23362;SDS011;11853;48.080;11.960;2022-10-16T16:46:49;3.42;;;2.25;;
23362;SDS011;11853;48.080;11.960;2022-10-16T16:49:15;2.10;;;1.98;;
23362;SDS011;11853;48.080;11.960;2022-10-16T16:51:41;4.15;;;2.28;;
23362;SDS011;11853;48.080;11.960;2022-10-16T16:54:07;3.75;;;3.20;;
23362;SDS011;11853;48.080;11.960;2022-10-16T16:56:34;8.00;;;6.88;;
23362;SDS011;11853;48.080;11.960;2022-10-16T16:59:00;15.02;;;12.60;;
23362;SDS011;11853;48.080;11.960;2022-10-16T17:01:26;15.35;;;13.75;;
23362;SDS011;11853;48.080;11.960;2022-10-16T17:03:54;12.90;;;11.13;;
23362;SDS011;11853;48.080;11.960;2022-10-16T17:06:22;10.80;;;9.70;;
23362;SDS011;11853;48.080;11.960;2022-10-16T17:08:52;16.67;;;14.75;;
23362;SDS011;11853;48.080;11.960;2022-10-16T17:11:22;20.17;;;17.98;;
23362;SDS011;11853;48.080;11.960;2022-10-16T17:13:49;16.27;;;13.90;;
23362;SDS011;11853;48.080;11.960;2022-10-16T17:16:17;13.38;;;9.65;;
23362;SDS011;11853;48.080;11.960;2022-10-16T17:18:43;8.15;;;6.68;;
23362;SDS011;11853;48.080;11.960;2022-10-16T17:21:09;4.70;;;4.30;;